F/V Argentario — FGPE — position and weather

sailwx.info

Track history (hours):
 
Tides and Currents Weather Stations Pressure Air Temp Water Temp Dewpoint Dewpoint Depression Visibility Wind Speed Wind Dir Waves Ship Positions

F/V Argentario

Last reported at 2015-Jul-02 18:33 UTC. Time now 2015-Jul-06 22:11 UTC.
Position N 46°41' W 002°14'.

Length 22 m; draft 3.4 m.

Type: Fishing. MMSI: 228975000.

Date/timePositionNaut miles runAvg speedWind from/ knotsBaromVisibWave heightAir tempDewpointWater temp
2015-Jul-02 18:33N 46°41' W 002°14'9 9.6
2015-Jul-02 17:34N 46°35' W 002°03'9 9.5
2015-Jul-02 16:33N 46°30' W 001°52'3 3.4
2015-Jul-02 15:33N 46°30' W 001°47'0 0.2
2015-Jul-02 14:33N 46°30' W 001°47'6 6.0
2015-Jul-02 13:34N 46°29' W 001°56'10 9.5
2015-Jul-02 12:33N 46°29' W 002°10'10 9.5
2015-Jul-02 11:33N 46°29' W 002°24'34 3.3
2015-Jul-02 01:13N 46°30' W 003°13'0 0.0
2015-Jul-01 22:33N 46°30' W 003°13'0 0.1
2015-Jul-01 21:28N 46°30' W 003°13'0 0.2
2015-Jul-01 20:31N 46°30' W 003°13'0 0.0
2015-Jul-01 18:34N 46°30' W 003°13'0 0.1
2015-Jul-01 17:25N 46°30' W 003°13'0 0.0
2015-Jul-01 13:33N 46°30' W 003°13'0 0.0
2015-Jul-01 12:30N 46°30' W 003°13'2 2.1
2015-Jul-01 11:22N 46°30' W 003°16'4 4.0
2015-Jul-01 10:28N 46°30' W 003°21'3 0.6
2015-Jul-01 05:06N 46°27' W 003°23'0 0.1
2015-Jul-01 04:29N 46°27' W 003°23'0 0.1
2015-Jul-01 03:23N 46°27' W 003°23'0 0.1
2015-Jul-01 02:29N 46°27' W 003°23'0 0.2
2015-Jul-01 01:32N 46°27' W 003°23'0 0.1
2015-Jul-01 00:32N 46°27' W 003°23'0 0.1
2015-Jun-30 20:23N 46°27' W 003°23'7 0.6
2015-Jun-30 08:33N 46°34' W 003°25'1 1.4
2015-Jun-30 07:33N 46°34' W 003°27'1 1.4
2015-Jun-30 06:33N 46°34' W 003°29'1 1.4
2015-Jun-30 05:33N 46°34' W 003°31'0 0.3
2015-Jun-30 04:25N 46°34' W 003°31'0 0.0
2015-Jun-30 03:31N 46°34' W 003°31'0 0.0
2015-Jun-29 19:19N 46°34' W 003°31'0 0.0
2015-Jun-29 18:28N 46°34' W 003°31'0 0.0
2015-Jun-29 17:22N 46°34' W 003°31'0 0.0
2015-Jun-29 16:28N 46°33' W 003°31'0 0.0
2015-Jun-29 15:28N 46°33' W 003°31'0 0.2
2015-Jun-29 14:31N 46°34' W 003°31'0 0.1
2015-Jun-29 13:31N 46°34' W 003°31'0 0.2
2015-Jun-29 12:32N 46°33' W 003°31'5 5.1
2015-Jun-29 11:33N 46°34' W 003°24'2 1.6
2015-Jun-29 10:31N 46°34' W 003°22'2 1.6
2015-Jun-29 09:33N 46°34' W 003°19'1 0.9
2015-Jun-29 08:33N 46°34' W 003°18'1 1.4
2015-Jun-29 07:33N 46°34' W 003°16'1 1.4
2015-Jun-29 06:33N 46°34' W 003°14'5 5.4
2015-Jun-29 05:33N 46°33' W 003°06'7 6.8
2015-Jun-29 04:33N 46°33' W 002°56'7 7.0
2015-Jun-29 03:33N 46°32' W 002°46'7 6.9
2015-Jun-29 02:33N 46°32' W 002°36'7 6.6
2015-Jun-29 01:33N 46°31' W 002°27'7 6.5
2015-Jun-29 00:33N 46°30' W 002°17'6 6.4
2015-Jun-28 23:33N 46°30' W 002°08'7 6.7
2015-Jun-28 22:33N 46°29' W 001°58'7 6.7
2015-Jun-28 21:33N 46°29' W 001°49'1 1.3
2015-Jun-28 20:31N 46°30' W 001°47'0 0.2
2015-Jun-28 19:31N 46°30' W 001°47'0 0.0
2015-Jun-28 18:31N 46°30' W 001°47'0 0.0
2015-Jun-28 17:31N 46°30' W 001°47'3 3.5
2015-Jun-28 16:33N 46°29' W 001°52'9 9.2
2015-Jun-28 15:34N 46°30' W 002°05'10 9.9
2015-Jun-28 14:32N 46°31' W 002°20'10 9.8
2015-Jun-28 13:30N 46°31' W 002°35'30 9.1
2015-Jun-28 10:13N 46°34' W 003°18'6 5.3
2015-Jun-28 09:09N 46°34' W 003°26'9 3.1
2015-Jun-28 06:19N 46°36' W 003°39'1 1.1
2015-Jun-28 05:25N 46°36' W 003°37'2 1.5
2015-Jun-28 04:22N 46°36' W 003°35'1 1.4
2015-Jun-28 03:33N 46°36' W 003°33'0 0.1
2015-Jun-28 01:25N 46°36' W 003°33'0 0.1
2015-Jun-27 23:25N 46°36' W 003°33'0 0.2
2015-Jun-27 22:31N 46°36' W 003°33'0 0.1
2015-Jun-27 21:28N 46°36' W 003°33'0 0.1
2015-Jun-27 20:10N 46°36' W 003°33'0 0.1
2015-Jun-27 19:31N 46°36' W 003°33'0 0.0
2015-Jun-27 18:31N 46°36' W 003°33'0 0.2
2015-Jun-27 17:28N 46°36' W 003°33'0 0.2
2015-Jun-27 16:10N 46°36' W 003°33'0 0.2
2015-Jun-27 14:31N 46°36' W 003°33'0 0.1
2015-Jun-27 13:22N 46°36' W 003°33'0 0.2
2015-Jun-27 12:07N 46°36' W 003°33'3 3.8
2015-Jun-27 11:24N 46°36' W 003°37'3 3.8
2015-Jun-27 10:33N 46°36' W 003°42'2 1.3
2015-Jun-27 09:25N 46°35' W 003°42'1 1.5
2015-Jun-27 08:26N 46°34' W 003°40'2 2.5
2015-Jun-27 07:33N 46°34' W 003°43'3 1.3
2015-Jun-27 05:26N 46°34' W 003°39'0 0.0
2015-Jun-26 19:28N 46°34' W 003°39'0 0.0
2015-Jun-26 18:31N 46°34' W 003°39'0 0.0
2015-Jun-26 17:28N 46°34' W 003°39'0 0.1
2015-Jun-26 16:31N 46°34' W 003°39'0 0.1
2015-Jun-26 15:31N 46°34' W 003°39'0 0.0
2015-Jun-26 14:31N 46°34' W 003°39'0 0.1
2015-Jun-26 13:31N 46°34' W 003°39'0 0.0
2015-Jun-26 12:31N 46°34' W 003°39'1 0.6
2015-Jun-26 11:33N 46°34' W 003°39'1 0.9
2015-Jun-26 10:30N 46°35' W 003°41'5 5.5
2015-Jun-26 09:33N 46°38' W 003°47'1 1.5
2015-Jun-26 08:33N 46°38' W 003°45'2 1.6
2015-Jun-26 07:33N 46°38' W 003°42'2 1.5
2015-Jun-26 06:34N 46°37' W 003°44'1 1.5
2015-Jun-26 05:33N 46°37' W 003°47'1 0.5
2015-Jun-26 04:31N 46°37' W 003°47'0 0.1
2015-Jun-26 03:28N 46°37' W 003°47'0 0.1
2015-Jun-26 02:31N 46°37' W 003°47'0 0.0
2015-Jun-26 01:31N 46°37' W 003°47'0 0.0
2015-Jun-26 00:31N 46°37' W 003°47'0 0.0
2015-Jun-25 23:31N 46°37' W 003°47'0 0.1
2015-Jun-25 22:25N 46°37' W 003°47'0 0.1
2015-Jun-25 21:31N 46°37' W 003°47'0 0.1
2015-Jun-25 20:19N 46°37' W 003°47'0 0.1
2015-Jun-25 19:31N 46°37' W 003°47'0 0.0
2015-Jun-25 17:10N 46°37' W 003°47'0 0.1
2015-Jun-25 15:22N 46°37' W 003°47'0 0.1
2015-Jun-25 14:31N 46°37' W 003°47'0 0.1
2015-Jun-25 13:19N 46°37' W 003°47'1 1.1
2015-Jun-25 12:24N 46°38' W 003°46'1 1.2
2015-Jun-25 11:31N 46°37' W 003°45'2 2.0
2015-Jun-25 10:33N 46°37' W 003°48'1 1.3
2015-Jun-25 09:33N 46°37' W 003°46'1 1.3
2015-Jun-25 08:26N 46°37' W 003°44'1 0.7
2015-Jun-25 07:33N 46°37' W 003°44'1 1.2
2015-Jun-25 06:18N 46°38' W 003°46'1 1.0
2015-Jun-25 05:33N 46°37' W 003°47'1 0.3
2015-Jun-25 02:28N 46°37' W 003°49'0 0.1
2015-Jun-25 01:25N 46°37' W 003°49'0 0.1
2015-Jun-25 00:28N 46°37' W 003°48'0 0.1
2015-Jun-24 23:31N 46°37' W 003°48'0 0.1
2015-Jun-24 22:28N 46°37' W 003°48'0 0.1
2015-Jun-24 21:31N 46°37' W 003°48'0 0.1
2015-Jun-24 20:31N 46°37' W 003°48'0 0.1
2015-Jun-24 19:19N 46°37' W 003°48'0 0.2
2015-Jun-24 17:31N 46°37' W 003°49'0 0.2
2015-Jun-24 16:33N 46°37' W 003°49'0 0.2
2015-Jun-24 15:31N 46°37' W 003°48'0 0.1
2015-Jun-24 14:25N 46°37' W 003°48'0 0.0
2015-Jun-24 13:11N 46°37' W 003°48'3 4.8
2015-Jun-24 12:34N 46°37' W 003°44'4 4.0
2015-Jun-24 11:34N 46°38' W 003°50'1 1.1
2015-Jun-24 10:18N 46°38' W 003°48'1 1.0
2015-Jun-24 09:33N 46°38' W 003°47'1 0.3
2015-Jun-24 07:20N 46°38' W 003°46'1 1.0
2015-Jun-24 06:29N 46°38' W 003°47'1 1.3
2015-Jun-24 05:21N 46°39' W 003°49'1 0.6
2015-Jun-24 03:08N 46°38' W 003°48'  
Track history (hours):
 
Tides and Currents Weather Stations Pressure Air Temp Water Temp Dewpoint Dewpoint Depression Visibility Wind Speed Wind Dir Waves Ship Positions

F/V Argentario

Last reported at 2015-Jul-02 18:33 UTC. Time now 2015-Jul-06 22:11 UTC.
Position N 46°41' W 002°14'.

Length 22 m; draft 3.4 m.

Type: Fishing. MMSI: 228975000.

Date/timePositionNaut miles runAvg speedWind from/ knotsBaromVisibWave heightAir tempDewpointWater temp
2015-Jul-02 18:33N 46°41' W 002°14'9 9.6
2015-Jul-02 17:34N 46°35' W 002°03'9 9.5
2015-Jul-02 16:33N 46°30' W 001°52'3 3.4
2015-Jul-02 15:33N 46°30' W 001°47'0 0.2
2015-Jul-02 14:33N 46°30' W 001°47'6 6.0
2015-Jul-02 13:34N 46°29' W 001°56'10 9.5
2015-Jul-02 12:33N 46°29' W 002°10'10 9.5
2015-Jul-02 11:33N 46°29' W 002°24'34 3.3
2015-Jul-02 01:13N 46°30' W 003°13'0 0.0
2015-Jul-01 22:33N 46°30' W 003°13'0 0.1
2015-Jul-01 21:28N 46°30' W 003°13'0 0.2
2015-Jul-01 20:31N 46°30' W 003°13'0 0.0
2015-Jul-01 18:34N 46°30' W 003°13'0 0.1
2015-Jul-01 17:25N 46°30' W 003°13'0 0.0
2015-Jul-01 13:33N 46°30' W 003°13'0 0.0
2015-Jul-01 12:30N 46°30' W 003°13'2 2.1
2015-Jul-01 11:22N 46°30' W 003°16'4 4.0
2015-Jul-01 10:28N 46°30' W 003°21'3 0.6
2015-Jul-01 05:06N 46°27' W 003°23'0 0.1
2015-Jul-01 04:29N 46°27' W 003°23'0 0.1
2015-Jul-01 03:23N 46°27' W 003°23'0 0.1
2015-Jul-01 02:29N 46°27' W 003°23'0 0.2
2015-Jul-01 01:32N 46°27' W 003°23'0 0.1
2015-Jul-01 00:32N 46°27' W 003°23'0 0.1
2015-Jun-30 20:23N 46°27' W 003°23'7 0.6
2015-Jun-30 08:33N 46°34' W 003°25'1 1.4
2015-Jun-30 07:33N 46°34' W 003°27'1 1.4
2015-Jun-30 06:33N 46°34' W 003°29'1 1.4
2015-Jun-30 05:33N 46°34' W 003°31'0 0.3
2015-Jun-30 04:25N 46°34' W 003°31'0 0.0
2015-Jun-30 03:31N 46°34' W 003°31'0 0.0
2015-Jun-29 19:19N 46°34' W 003°31'0 0.0
2015-Jun-29 18:28N 46°34' W 003°31'0 0.0
2015-Jun-29 17:22N 46°34' W 003°31'0 0.0
2015-Jun-29 16:28N 46°33' W 003°31'0 0.0
2015-Jun-29 15:28N 46°33' W 003°31'0 0.2
2015-Jun-29 14:31N 46°34' W 003°31'0 0.1
2015-Jun-29 13:31N 46°34' W 003°31'0 0.2
2015-Jun-29 12:32N 46°33' W 003°31'5 5.1
2015-Jun-29 11:33N 46°34' W 003°24'2 1.6
2015-Jun-29 10:31N 46°34' W 003°22'2 1.6
2015-Jun-29 09:33N 46°34' W 003°19'1 0.9
2015-Jun-29 08:33N 46°34' W 003°18'1 1.4
2015-Jun-29 07:33N 46°34' W 003°16'1 1.4
2015-Jun-29 06:33N 46°34' W 003°14'5 5.4
2015-Jun-29 05:33N 46°33' W 003°06'7 6.8
2015-Jun-29 04:33N 46°33' W 002°56'7 7.0
2015-Jun-29 03:33N 46°32' W 002°46'7 6.9
2015-Jun-29 02:33N 46°32' W 002°36'7 6.6
2015-Jun-29 01:33N 46°31' W 002°27'7 6.5
2015-Jun-29 00:33N 46°30' W 002°17'6 6.4
2015-Jun-28 23:33N 46°30' W 002°08'7 6.7
2015-Jun-28 22:33N 46°29' W 001°58'7 6.7
2015-Jun-28 21:33N 46°29' W 001°49'1 1.3
2015-Jun-28 20:31N 46°30' W 001°47'0 0.2
2015-Jun-28 19:31N 46°30' W 001°47'0 0.0
2015-Jun-28 18:31N 46°30' W 001°47'0 0.0
2015-Jun-28 17:31N 46°30' W 001°47'3 3.5
2015-Jun-28 16:33N 46°29' W 001°52'9 9.2
2015-Jun-28 15:34N 46°30' W 002°05'10 9.9
2015-Jun-28 14:32N 46°31' W 002°20'10 9.8
2015-Jun-28 13:30N 46°31' W 002°35'30 9.1
2015-Jun-28 10:13N 46°34' W 003°18'6 5.3
2015-Jun-28 09:09N 46°34' W 003°26'9 3.1
2015-Jun-28 06:19N 46°36' W 003°39'1 1.1
2015-Jun-28 05:25N 46°36' W 003°37'2 1.5
2015-Jun-28 04:22N 46°36' W 003°35'1 1.4
2015-Jun-28 03:33N 46°36' W 003°33'0 0.1
2015-Jun-28 01:25N 46°36' W 003°33'0 0.1
2015-Jun-27 23:25N 46°36' W 003°33'0 0.2
2015-Jun-27 22:31N 46°36' W 003°33'0 0.1
2015-Jun-27 21:28N 46°36' W 003°33'0 0.1
2015-Jun-27 20:10N 46°36' W 003°33'0 0.1
2015-Jun-27 19:31N 46°36' W 003°33'0 0.0
2015-Jun-27 18:31N 46°36' W 003°33'0 0.2
2015-Jun-27 17:28N 46°36' W 003°33'0 0.2
2015-Jun-27 16:10N 46°36' W 003°33'0 0.2
2015-Jun-27 14:31N 46°36' W 003°33'0 0.1
2015-Jun-27 13:22N 46°36' W 003°33'0 0.2
2015-Jun-27 12:07N 46°36' W 003°33'3 3.8
2015-Jun-27 11:24N 46°36' W 003°37'3 3.8
2015-Jun-27 10:33N 46°36' W 003°42'2 1.3
2015-Jun-27 09:25N 46°35' W 003°42'1 1.5
2015-Jun-27 08:26N 46°34' W 003°40'2 2.5
2015-Jun-27 07:33N 46°34' W 003°43'3 1.3
2015-Jun-27 05:26N 46°34' W 003°39'0 0.0
2015-Jun-26 19:28N 46°34' W 003°39'0 0.0
2015-Jun-26 18:31N 46°34' W 003°39'0 0.0
2015-Jun-26 17:28N 46°34' W 003°39'0 0.1
2015-Jun-26 16:31N 46°34' W 003°39'0 0.1
2015-Jun-26 15:31N 46°34' W 003°39'0 0.0
2015-Jun-26 14:31N 46°34' W 003°39'0 0.1
2015-Jun-26 13:31N 46°34' W 003°39'0 0.0
2015-Jun-26 12:31N 46°34' W 003°39'1 0.6
2015-Jun-26 11:33N 46°34' W 003°39'1 0.9
2015-Jun-26 10:30N 46°35' W 003°41'5 5.5
2015-Jun-26 09:33N 46°38' W 003°47'1 1.5
2015-Jun-26 08:33N 46°38' W 003°45'2 1.6
2015-Jun-26 07:33N 46°38' W 003°42'2 1.5
2015-Jun-26 06:34N 46°37' W 003°44'1 1.5
2015-Jun-26 05:33N 46°37' W 003°47'1 0.5
2015-Jun-26 04:31N 46°37' W 003°47'0 0.1
2015-Jun-26 03:28N 46°37' W 003°47'0 0.1
2015-Jun-26 02:31N 46°37' W 003°47'0 0.0
2015-Jun-26 01:31N 46°37' W 003°47'0 0.0
2015-Jun-26 00:31N 46°37' W 003°47'0 0.0
2015-Jun-25 23:31N 46°37' W 003°47'0 0.1
2015-Jun-25 22:25N 46°37' W 003°47'0 0.1
2015-Jun-25 21:31N 46°37' W 003°47'0 0.1
2015-Jun-25 20:19N 46°37' W 003°47'0 0.1
2015-Jun-25 19:31N 46°37' W 003°47'0 0.0
2015-Jun-25 17:10N 46°37' W 003°47'0 0.1
2015-Jun-25 15:22N 46°37' W 003°47'0 0.1
2015-Jun-25 14:31N 46°37' W 003°47'0 0.1
2015-Jun-25 13:19N 46°37' W 003°47'1 1.1
2015-Jun-25 12:24N 46°38' W 003°46'1 1.2
2015-Jun-25 11:31N 46°37' W 003°45'2 2.0
2015-Jun-25 10:33N 46°37' W 003°48'1 1.3
2015-Jun-25 09:33N 46°37' W 003°46'1 1.3
2015-Jun-25 08:26N 46°37' W 003°44'1 0.7
2015-Jun-25 07:33N 46°37' W 003°44'1 1.2
2015-Jun-25 06:18N 46°38' W 003°46'1 1.0
2015-Jun-25 05:33N 46°37' W 003°47'1 0.3
2015-Jun-25 02:28N 46°37' W 003°49'0 0.1
2015-Jun-25 01:25N 46°37' W 003°49'0 0.1
2015-Jun-25 00:28N 46°37' W 003°48'0 0.1
2015-Jun-24 23:31N 46°37' W 003°48'0 0.1
2015-Jun-24 22:28N 46°37' W 003°48'0 0.1
2015-Jun-24 21:31N 46°37' W 003°48'0 0.1
2015-Jun-24 20:31N 46°37' W 003°48'0 0.1
2015-Jun-24 19:19N 46°37' W 003°48'0 0.2
2015-Jun-24 17:31N 46°37' W 003°49'0 0.2
2015-Jun-24 16:33N 46°37' W 003°49'0 0.2
2015-Jun-24 15:31N 46°37' W 003°48'0 0.1
2015-Jun-24 14:25N 46°37' W 003°48'0 0.0
2015-Jun-24 13:11N 46°37' W 003°48'3 4.8
2015-Jun-24 12:34N 46°37' W 003°44'4 4.0
2015-Jun-24 11:34N 46°38' W 003°50'1 1.1
2015-Jun-24 10:18N 46°38' W 003°48'1 1.0
2015-Jun-24 09:33N 46°38' W 003°47'1 0.3
2015-Jun-24 07:20N 46°38' W 003°46'1 1.0
2015-Jun-24 06:29N 46°38' W 003°47'1 1.3
2015-Jun-24 05:21N 46°39' W 003°49'1 0.6
2015-Jun-24 03:08N 46°38' W 003°48'  

Dump ship's entire track history